createdAt,value
2022-08-30T00:02:15.365Z,64.60
2022-08-30T00:12:17.270Z,65.10
2022-08-30T00:22:18.962Z,65.60
2022-08-30T00:32:21.450Z,66.00
2022-08-30T00:42:25.202Z,66.60
2022-08-30T00:52:26.960Z,67.90
2022-08-30T01:02:30.894Z,67.60
2022-08-30T01:12:32.752Z,68.00
2022-08-30T01:22:49.438Z,68.10
2022-08-30T01:32:57.067Z,68.50
2022-08-30T01:42:58.767Z,68.80
2022-08-30T01:53:00.488Z,69.30
2022-08-30T02:03:02.188Z,69.60
2022-08-30T02:13:04.110Z,70.20
2022-08-30T02:23:05.838Z,70.50
2022-08-30T02:33:07.546Z,70.80
2022-08-30T02:43:09.332Z,70.40
2022-08-30T02:53:11.354Z,71.50
2022-08-30T03:03:18.040Z,72.00
2022-08-30T03:13:19.878Z,72.50
2022-08-30T03:23:22.371Z,73.20
2022-08-30T03:33:24.705Z,73.70
2022-08-30T03:43:26.421Z,74.10
2022-08-30T03:53:28.125Z,74.30
2022-08-30T04:03:29.763Z,74.80
2022-08-30T04:13:31.387Z,75.40
2022-08-30T04:23:33.480Z,76.30
2022-08-30T04:33:36.116Z,76.90
2022-08-30T04:43:40.327Z,77.20
2022-08-30T04:53:43.117Z,77.60
2022-08-30T05:03:44.908Z,77.90
2022-08-30T05:13:46.855Z,78.60
2022-08-30T05:23:49.971Z,79.60
2022-08-30T05:33:53.255Z,79.70
2022-08-30T05:43:56.780Z,79.90
2022-08-30T05:53:59.664Z,79.90
2022-08-30T06:04:04.314Z,79.70
2022-08-30T06:14:06.428Z,78.70
2022-08-30T06:24:10.932Z,78.10
2022-08-30T06:34:13.199Z,77.00
2022-08-30T06:44:14.920Z,76.40
2022-08-30T06:54:16.917Z,76.00
2022-08-30T07:04:18.661Z,75.10
2022-08-30T07:14:21.477Z,74.10
2022-08-30T07:24:23.151Z,72.60
2022-08-30T07:34:27.454Z,72.80
2022-08-30T07:44:29.228Z,72.20
2022-08-30T07:54:30.884Z,71.60
2022-08-30T08:04:34.352Z,71.10
2022-08-30T08:14:37.052Z,70.90
2022-08-30T08:24:38.772Z,70.40
2022-08-30T08:34:41.481Z,70.10
2022-08-30T08:45:10.217Z,69.70
2022-08-30T08:55:18.522Z,69.50
2022-08-30T09:05:23.892Z,69.30
2022-08-30T09:15:29.694Z,68.90
2022-08-30T09:25:32.904Z,68.30
2022-08-30T09:35:46.572Z,66.60
2022-08-30T09:46:06.053Z,66.60
2022-08-30T09:56:16.795Z,66.10
2022-08-30T10:06:52.244Z,65.40
2022-08-30T10:17:13.535Z,64.50
2022-08-30T10:27:25.707Z,63.10
2022-08-30T10:37:31.480Z,62.30
2022-08-30T10:48:01.008Z,61.70
2022-08-30T10:58:06.990Z,60.60
2022-08-30T11:08:43.843Z,59.40
2022-08-30T11:18:51.945Z,59.00
2022-08-30T11:29:02.393Z,58.40
2022-08-30T11:39:33.997Z,57.60
2022-08-30T11:50:09.761Z,57.20
2022-08-30T12:00:36.785Z,57.60
2022-08-30T12:10:48.792Z,57.00
2022-08-30T12:20:50.981Z,56.20
2022-08-30T12:30:53.908Z,55.40
2022-08-30T12:41:00.142Z,54.70
2022-08-30T12:51:01.937Z,53.30
2022-08-30T13:01:32.617Z,51.70
2022-08-30T13:11:35.057Z,50.80
2022-08-30T13:21:57.192Z,49.60
2022-08-30T13:31:59.343Z,49.10
2022-08-30T13:52:24.482Z,47.70
2022-08-30T14:02:26.279Z,47.40
2022-08-30T14:22:50.463Z,45.10
2022-08-30T14:32:52.413Z,43.80
2022-08-30T14:42:54.541Z,43.70
2022-08-30T14:52:56.213Z,43.60
2022-08-30T15:02:57.859Z,43.90
2022-08-30T15:12:59.616Z,44.00
2022-08-30T15:23:06.597Z,44.10
2022-08-30T15:33:09.431Z,44.50
2022-08-30T15:43:11.098Z,44.80
2022-08-30T15:53:12.847Z,45.20
2022-08-30T16:03:14.589Z,45.60
2022-08-30T16:13:17.744Z,45.60
2022-08-30T16:23:19.567Z,46.50
2022-08-30T16:33:21.504Z,46.40
2022-08-30T16:43:23.911Z,46.90
2022-08-30T16:53:26.533Z,47.10
2022-08-30T17:03:28.284Z,47.20
2022-08-30T17:13:33.153Z,47.50
2022-08-30T17:23:35.972Z,47.60
2022-08-30T17:33:40.540Z,47.80
2022-08-30T17:43:42.207Z,48.50
2022-08-30T17:53:44.079Z,48.20
2022-08-30T18:03:46.278Z,48.50
2022-08-30T18:13:48.195Z,48.80
2022-08-30T18:23:50.728Z,49.10
2022-08-30T18:33:53.138Z,49.50
2022-08-30T18:44:10.932Z,49.80
2022-08-30T18:54:16.483Z,50.40
2022-08-30T19:04:22.244Z,50.90
2022-08-30T19:14:24.456Z,51.40
2022-08-30T19:24:30.021Z,51.90
2022-08-30T19:34:32.092Z,52.50
2022-08-30T19:44:33.919Z,52.80
2022-08-30T19:54:36.728Z,53.20
2022-08-30T20:04:40.824Z,53.60
2022-08-30T20:14:46.588Z,54.00
2022-08-30T20:24:48.274Z,54.40
2022-08-30T20:34:51.275Z,54.60
2022-08-30T20:44:54.002Z,55.60
2022-08-30T20:54:55.683Z,55.40
2022-08-30T21:04:57.666Z,55.70
2022-08-30T21:15:00.835Z,55.90
2022-08-30T21:25:06.554Z,56.20
2022-08-30T21:35:27.717Z,56.50
2022-08-30T21:45:29.369Z,56.90
2022-08-30T21:55:31.056Z,57.50
2022-08-30T22:05:32.688Z,57.70
2022-08-30T22:15:34.398Z,58.10
2022-08-30T22:25:36.540Z,58.40
2022-08-30T22:35:38.259Z,58.50
2022-08-30T22:45:40.885Z,59.00
2022-08-30T22:55:42.594Z,59.50
2022-08-30T23:16:07.618Z,60.20
2022-08-30T23:26:27.907Z,60.70
2022-08-30T23:36:48.312Z,61.00
2022-08-30T23:47:08.933Z,61.50
2022-08-30T23:57:29.328Z,61.80
